Time;durP1;ratioP1;P1;durP2;ratioP2;P2;SDS_P1;SDS_P2;PMS_P1;PMS_P2;Temp;Humidity;BMP_temperature;BMP_pressure;BME280_temperature;BME280_humidity;BME280_pressure;Samples;Min_cycle;Max_cycle;Signal;HPM_P1;HPM_P2
2023/01/22 00:00:23;;;;;;;22.95;14.00;;;;;;;3.79;61.15;103255.72;5034372;28;20060;-62
2023/01/22 00:02:51;;;;;;;24.73;14.48;;;;;;;3.81;60.47;103263.59;5036918;28;20050;-61
2023/01/22 00:05:19;;;;;;;23.38;14.55;;;;;;;3.80;60.99;103264.56;5051514;28;20470;-62
2023/01/22 00:07:47;;;;;;;23.70;14.13;;;;;;;3.78;61.08;103266.47;5043825;28;20049;-62
2023/01/22 00:10:15;;;;;;;24.42;14.68;;;;;;;3.76;60.63;103268.41;5041434;28;20132;-62
2023/01/22 00:12:44;;;;;;;23.67;14.10;;;;;;;3.72;61.19;103269.63;5037914;28;20041;-63
2023/01/22 00:15:12;;;;;;;24.15;14.02;;;;;;;3.69;60.84;103265.38;5042842;28;20045;-62
2023/01/22 00:17:39;;;;;;;20.98;13.13;;;;;;;3.71;60.93;103274.09;5041647;28;20057;-62
2023/01/22 00:20:09;;;;;;;21.27;13.07;;;;;;;3.69;60.57;103272.50;5044802;28;20082;-62
2023/01/22 00:22:37;;;;;;;22.20;13.93;;;;;;;3.69;60.81;103267.19;5044319;28;20073;-62
2023/01/22 00:25:06;;;;;;;24.35;14.05;;;;;;;3.66;61.08;103265.63;5043342;28;20414;-62
2023/01/22 00:27:34;;;;;;;23.67;14.10;;;;;;;3.68;61.23;103278.78;5041440;28;20518;-62
2023/01/22 00:30:04;;;;;;;20.70;13.57;;;;;;;3.68;60.80;103270.81;5048035;28;20087;-61
2023/01/22 00:32:32;;;;;;;22.67;13.80;;;;;;;3.68;60.56;103262.84;5043262;28;20052;-62
2023/01/22 00:34:59;;;;;;;21.08;13.95;;;;;;;3.65;61.49;103261.25;5045042;28;20109;-62
2023/01/22 00:37:27;;;;;;;20.52;13.35;;;;;;;3.63;60.98;103265.00;5046098;28;20443;-62
2023/01/22 00:39:55;;;;;;;21.90;13.63;;;;;;;3.66;61.28;103260.28;5042889;28;20049;-62
2023/01/22 00:42:23;;;;;;;21.05;12.50;;;;;;;3.65;61.54;103263.91;5049269;28;20287;-61
2023/01/22 00:44:50;;;;;;;19.85;12.95;;;;;;;3.66;61.56;103262.94;5043437;28;20069;-63
2023/01/22 00:47:19;;;;;;;22.13;13.65;;;;;;;3.64;60.75;103256.91;5046494;28;20534;-61
2023/01/22 00:49:47;;;;;;;22.10;13.68;;;;;;;3.65;61.22;103260.41;5036667;28;20053;-62
2023/01/22 00:52:15;;;;;;;19.85;12.95;;;;;;;3.63;60.94;103263.19;5042368;28;20052;-61
2023/01/22 00:54:42;;;;;;;22.52;13.63;;;;;;;3.68;61.52;103254.84;5045360;28;20368;-62
2023/01/22 00:57:10;;;;;;;23.60;13.43;;;;;;;3.62;61.32;103256.19;5053570;28;20132;-61
2023/01/22 00:59:38;;;;;;;20.98;12.65;;;;;;;3.64;60.78;103259.56;5055188;28;20105;-61
2023/01/22 01:02:06;;;;;;;21.30;13.43;;;;;;;3.65;61.63;103250.63;5044717;28;20068;-61
2023/01/22 01:04:37;;;;;;;20.90;13.27;;;;;;;3.65;61.62;103245.31;5052427;28;20045;-61
2023/01/22 01:07:05;;;;;;;23.48;13.20;;;;;;;3.66;60.82;103240.84;5036293;28;20132;-62
2023/01/22 01:09:33;;;;;;;20.17;13.38;;;;;;;3.65;60.71;103239.13;5040923;28;20438;-61
2023/01/22 01:12:01;;;;;;;21.70;13.40;;;;;;;3.65;60.73;103229.34;5046090;28;20585;-61
2023/01/22 01:14:28;;;;;;;19.88;12.55;;;;;;;3.65;60.96;103239.13;5040579;28;20080;-61
2023/01/22 01:16:56;;;;;;;21.35;13.70;;;;;;;3.62;61.32;103236.72;5048935;28;20136;-62
2023/01/22 01:19:25;;;;;;;20.95;12.75;;;;;;;3.60;61.87;103234.16;5051972;28;20170;-61
2023/01/22 01:21:54;;;;;;;19.92;13.05;;;;;;;3.60;61.85;103224.38;5041484;28;20045;-62
2023/01/22 01:24:22;;;;;;;20.85;12.93;;;;;;;3.62;61.62;103237.56;5048887;28;20128;-61
2023/01/22 01:26:50;;;;;;;20.52;13.05;;;;;;;3.63;61.20;103233.94;5034842;28;20116;-61
2023/01/22 01:29:18;;;;;;;19.63;12.60;;;;;;;3.63;61.57;103227.78;5043632;28;20113;-61
2023/01/22 01:31:46;;;;;;;20.65;13.63;;;;;;;3.64;61.72;103229.47;5048857;28;20121;-61
2023/01/22 01:34:14;;;;;;;19.52;13.23;;;;;;;3.62;61.62;103224.25;5047418;28;20106;-61
2023/01/22 01:36:42;;;;;;;20.70;13.57;;;;;;;3.59;61.60;103219.19;5048573;28;20075;-61
2023/01/22 01:39:18;;;;;;;21.83;13.43;;;;;;;3.54;61.21;103218.69;5045260;28;20069;-61
2023/01/22 01:41:46;;;;;;;19.13;12.75;;;;;;;3.50;60.96;103207.44;5049410;28;20479;-61
2023/01/22 01:44:16;;;;;;;20.10;13.10;;;;;;;3.54;61.54;103200.94;5039932;28;20081;-61
2023/01/22 01:46:48;;;;;;;18.95;12.93;;;;;;;3.58;61.41;103202.38;5048091;28;20060;-61
2023/01/22 01:49:22;;;;;;;21.30;13.18;;;;;;;3.60;61.40;103197.78;5045894;28;20052;-61
2023/01/22 01:51:50;;;;;;;18.75;12.45;;;;;;;3.52;60.84;103178.09;5040883;28;20057;-61
2023/01/22 01:54:20;;;;;;;21.50;13.55;;;;;;;3.56;61.40;103188.38;5052609;28;20077;-62
2023/01/22 01:56:50;;;;;;;20.60;12.90;;;;;;;3.60;61.02;103195.13;5041251;28;20092;-62
2023/01/22 01:59:20;;;;;;;19.15;12.48;;;;;;;3.54;61.50;103192.94;5043391;28;20088;-62
2023/01/22 02:01:52;;;;;;;21.05;13.80;;;;;;;3.59;61.30;103189.94;5041936;28;20678;-62
2023/01/22 02:04:21;;;;;;;19.85;12.43;;;;;;;3.57;61.27;103184.75;5057859;28;20095;-62
2023/01/22 02:06:49;;;;;;;20.70;12.65;;;;;;;3.57;61.37;103189.22;5041594;28;20053;-62
2023/01/22 02:09:17;;;;;;;21.08;12.23;;;;;;;3.57;60.88;103199.84;5045665;28;20049;-62
2023/01/22 02:11:46;;;;;;;19.10;12.90;;;;;;;3.52;61.00;103188.72;5044563;28;20064;-62
2023/01/22 02:14:18;;;;;;;19.70;12.73;;;;;;;3.51;61.70;103182.56;5034095;28;20134;-62
2023/01/22 02:16:46;;;;;;;18.50;11.80;;;;;;;3.49;61.57;103180.97;5043560;28;20081;-61
2023/01/22 02:19:14;;;;;;;21.40;12.85;;;;;;;3.48;60.69;103172.16;5046402;28;20136;-62
2023/01/22 02:21:44;;;;;;;20.95;12.90;;;;;;;3.49;61.33;103176.50;5041683;28;20076;-62
2023/01/22 02:24:15;;;;;;;19.05;12.43;;;;;;;3.50;61.48;103175.53;5046629;28;20052;-62
2023/01/22 02:26:44;;;;;;;21.38;12.77;;;;;;;3.52;61.52;103184.25;5043079;28;20087;-62
2023/01/22 02:29:14;;;;;;;19.10;12.27;;;;;;;3.52;61.41;103188.72;5040735;28;20053;-62
2023/01/22 02:31:42;;;;;;;20.05;11.52;;;;;;;3.52;61.63;103186.91;5044456;28;20499;-62
2023/01/22 02:34:11;;;;;;;17.67;12.02;;;;;;;3.52;61.30;103181.59;5043109;28;20053;-61
2023/01/22 02:36:40;;;;;;;23.13;11.88;;;;;;;3.51;60.74;103179.91;5051016;28;20049;-62
2023/01/22 02:39:09;;;;;;;19.45;12.73;;;;;;;3.52;60.80;103184.25;5043162;28;20136;-61
2023/01/22 02:41:36;;;;;;;19.02;11.02;;;;;;;3.52;60.84;103191.38;5042775;28;20116;-62
2023/01/22 02:44:06;;;;;;;17.90;11.20;;;;;;;3.53;60.79;103177.13;5040173;28;20088;-62
2023/01/22 02:46:34;;;;;;;17.63;11.73;;;;;;;3.50;60.75;103186.19;5045452;28;20053;-62
2023/01/22 02:49:01;;;;;;;17.23;11.13;;;;;;;3.51;61.56;103184.38;5056673;28;20160;-62
2023/01/22 02:51:29;;;;;;;18.02;11.85;;;;;;;3.52;60.95;103173.63;5049231;28;20076;-61
2023/01/22 02:53:57;;;;;;;18.00;12.02;;;;;;;3.53;60.86;103174.47;5042457;28;20081;-62
2023/01/22 02:56:26;;;;;;;16.25;10.02;;;;;;;3.52;61.39;103188.72;5037960;28;20045;-62
2023/01/22 02:58:54;;;;;;;19.17;11.48;;;;;;;3.50;61.78;103186.19;5040850;28;20141;-61
2023/01/22 03:01:23;;;;;;;17.95;11.68;;;;;;;3.47;61.35;103182.91;5039410;28;20177;-62
2023/01/22 03:03:53;;;;;;;17.13;10.93;;;;;;;3.37;61.72;103187.28;5044697;28;20156;-62
2023/01/22 03:06:23;;;;;;;19.05;11.40;;;;;;;3.32;62.31;103174.31;5043401;28;20061;-62
2023/01/22 03:08:54;;;;;;;16.48;11.48;;;;;;;3.36;61.25;103186.41;5044091;28;20160;-62
2023/01/22 03:11:22;;;;;;;16.55;11.35;;;;;;;3.40;62.04;103181.72;5037213;28;20056;-62
2023/01/22 03:22:10;;;;;;;16.37;10.60;;;;;;;3.23;61.75;103159.94;5043477;28;20466;-62
2023/01/22 03:24:37;;;;;;;17.17;10.18;;;;;;;3.17;61.70;103160.41;5044164;28;20819;-62
2023/01/22 03:27:05;;;;;;;17.15;11.43;;;;;;;3.15;62.55;103166.78;5049645;28;20128;-61
2023/01/22 03:29:37;;;;;;;17.17;10.07;;;;;;;3.13;62.12;103161.59;5040872;28;20049;-62
2023/01/22 03:32:05;;;;;;;14.55;10.38;;;;;;;3.21;61.81;103156.53;5042448;28;20052;-62
2023/01/22 03:34:33;;;;;;;15.95;10.88;;;;;;;3.21;61.65;103156.53;5042681;28;20044;-61
2023/01/22 03:37:01;;;;;;;16.42;10.55;;;;;;;3.24;61.48;103158.13;5044769;28;20060;-62
2023/01/22 03:39:31;;;;;;;19.25;10.70;;;;;;;3.27;61.82;103155.22;5042857;28;20045;-62
2023/01/22 03:41:58;;;;;;;14.63;9.80;;;;;;;3.17;62.04;103141.81;5041976;28;20470;-62
2023/01/22 03:44:26;;;;;;;17.52;10.52;;;;;;;3.23;62.42;103146.66;5036884;28;20180;-62
2023/01/22 03:46:56;;;;;;;16.75;10.00;;;;;;;3.26;62.03;103135.78;5049025;28;20053;-62
2023/01/22 03:49:23;;;;;;;14.93;10.15;;;;;;;3.24;61.60;103129.75;5050102;28;20152;-62
2023/01/22 03:51:51;;;;;;;16.65;10.45;;;;;;;3.32;61.71;103142.44;5047590;28;20391;-62
2023/01/22 03:54:19;;;;;;;16.35;10.95;;;;;;;3.31;61.37;103147.88;5037293;28;20044;-63
2023/01/22 03:56:47;;;;;;;17.52;10.50;;;;;;;3.28;61.52;103146.28;5048854;28;20132;-62
2023/01/22 03:59:14;;;;;;;19.45;10.88;;;;;;;3.23;61.68;103145.81;5045608;28;20045;-62
2023/01/22 04:01:42;;;;;;;17.25;10.88;;;;;;;3.23;61.10;103148.47;5044186;28;20049;-62
2023/01/22 04:04:12;;;;;;;17.15;10.40;;;;;;;3.28;61.29;103156.06;5059129;28;20057;-62
2023/01/22 04:06:39;;;;;;;15.35;9.30;;;;;;;3.26;61.16;103150.88;5045105;28;20053;-62
2023/01/22 04:09:07;;;;;;;13.65;9.55;;;;;;;3.29;61.11;103147.16;5047223;28;20076;-62
2023/01/22 04:11:35;;;;;;;15.77;9.85;;;;;;;3.20;61.38;103146.03;5044439;28;20469;-62
2023/01/22 04:14:02;;;;;;;15.68;10.05;;;;;;;3.25;61.84;103151.84;5044151;28;20050;-62
2023/01/22 04:16:30;;;;;;;15.63;9.98;;;;;;;3.26;61.28;103153.53;5043814;28;20268;-62
2023/01/22 04:18:58;;;;;;;16.35;10.38;;;;;;;3.29;61.26;103144.47;5048668;28;20053;-62
2023/01/22 04:21:27;;;;;;;17.40;10.30;;;;;;;3.32;61.21;103138.94;5043980;28;20151;-63
2023/01/22 04:23:55;;;;;;;15.82;10.10;;;;;;;3.34;61.50;103140.50;5042041;28;20081;-62
2023/01/22 04:26:23;;;;;;;15.60;10.50;;;;;;;3.35;61.81;103136.03;5051565;28;20052;-63
2023/01/22 04:28:51;;;;;;;14.10;9.52;;;;;;;3.38;61.70;103135.81;5053805;28;20044;-63
2023/01/22 04:31:19;;;;;;;16.85;10.07;;;;;;;3.38;61.82;103136.66;5046169;28;20045;-62
2023/01/22 04:33:47;;;;;;;17.38;10.07;;;;;;;3.35;61.56;103134.22;5051445;28;20114;-62
2023/01/22 04:36:14;;;;;;;15.95;9.88;;;;;;;3.36;61.56;103133.25;5046158;28;20045;-62
2023/01/22 04:38:43;;;;;;;18.40;10.65;;;;;;;3.33;62.04;103133.50;5054280;28;20383;-62
2023/01/22 04:41:11;;;;;;;16.05;10.65;;;;;;;3.21;62.26;103140.59;5043662;28;20064;-62
2023/01/22 04:43:39;;;;;;;16.67;10.77;;;;;;;3.16;62.34;103142.75;5049338;28;20109;-62
2023/01/22 04:46:07;;;;;;;17.30;10.90;;;;;;;3.10;62.41;103142.38;5054899;28;20055;-62
2023/01/22 04:48:35;;;;;;;16.25;10.63;;;;;;;2.89;62.00;103103.22;5047363;28;20045;-62
2023/01/22 04:51:03;;;;;;;15.63;10.15;;;;;;;3.19;62.48;103131.91;5046769;28;20046;-62
2023/01/22 04:53:31;;;;;;;15.15;10.10;;;;;;;3.18;62.12;103124.06;5046056;28;20049;-62
2023/01/22 04:56:00;;;;;;;17.88;10.05;;;;;;;3.23;62.43;103128.03;5058641;28;20088;-62
2023/01/22 04:58:28;;;;;;;14.27;10.13;;;;;;;3.30;61.48;103135.56;5046398;28;20045;-62
2023/01/22 05:00:56;;;;;;;16.23;9.18;;;;;;;3.26;62.10;103130.47;5041670;28;20065;-62
2023/01/22 05:03:23;;;;;;;14.63;10.50;;;;;;;3.25;61.92;103138.56;5038156;28;20116;-62
2023/01/22 05:05:51;;;;;;;17.15;10.00;;;;;;;3.25;62.26;103135.91;5048541;28;20157;-62
2023/01/22 05:08:19;;;;;;;14.38;10.20;;;;;;;3.13;61.90;103137.69;5045160;28;20069;-62
2023/01/22 05:10:47;;;;;;;17.17;10.27;;;;;;;3.09;61.97;103135.38;5046759;28;20085;-62
2023/01/22 05:13:16;;;;;;;17.20;10.35;;;;;;;3.04;62.70;103130.41;5047813;28;20060;-62
2023/01/22 05:15:43;;;;;;;13.15;9.40;;;;;;;3.02;62.29;103131.50;5042935;28;20045;-62
2023/01/22 05:18:11;;;;;;;17.83;10.82;;;;;;;3.04;61.93;103134.88;5045494;28;20049;-62
2023/01/22 05:20:39;;;;;;;15.95;10.13;;;;;;;2.97;62.74;103133.66;5039152;28;20069;-62
2023/01/22 05:23:06;;;;;;;15.90;9.63;;;;;;;2.91;62.17;103141.13;5045000;28;20108;-62
2023/01/22 05:25:34;;;;;;;15.38;9.82;;;;;;;2.87;62.63;103144.97;5049420;28;20137;-62
2023/01/22 05:28:02;;;;;;;16.30;10.00;;;;;;;2.90;62.34;103142.09;5044334;28;20124;-62
2023/01/22 05:30:31;;;;;;;14.68;8.93;;;;;;;2.99;61.87;103150.31;5037563;28;20109;-62
2023/01/22 05:32:59;;;;;;;13.95;9.75;;;;;;;3.01;61.77;103151.91;5044569;28;20076;-63
2023/01/22 05:35:26;;;;;;;15.35;9.68;;;;;;;3.11;61.63;103147.59;5046298;28;20052;-63
2023/01/22 05:37:56;;;;;;;13.50;9.48;;;;;;;3.14;61.76;103143.84;5046703;28;20185;-62
2023/01/22 05:40:24;;;;;;;14.40;9.40;;;;;;;3.05;61.78;103150.69;5045768;28;20056;-63
2023/01/22 05:42:52;;;;;;;12.90;9.50;;;;;;;3.02;62.08;103150.94;5047317;28;20045;-62
2023/01/22 05:45:19;;;;;;;15.35;9.82;;;;;;;3.00;61.68;103157.31;5050555;28;20050;-62
2023/01/22 05:47:53;;;;;;;13.43;9.13;;;;;;;2.98;61.99;103157.44;5043077;28;20525;-62
2023/01/22 05:50:20;;;;;;;16.42;9.30;;;;;;;2.97;61.83;103154.91;5044853;28;20042;-62
2023/01/22 05:52:54;;;;;;;16.23;9.07;;;;;;;3.00;62.23;103159.97;5045608;28;20096;-62
2023/01/22 05:55:22;;;;;;;14.38;9.75;;;;;;;3.01;62.54;103165.19;5045017;28;20046;-62
2023/01/22 05:57:49;;;;;;;13.52;9.40;;;;;;;2.97;61.93;103173.50;5044596;28;20117;-62
2023/01/22 06:00:18;;;;;;;21.13;10.35;;;;;;;3.00;62.40;103159.97;5043128;28;20057;-62
2023/01/22 06:02:46;;;;;;;16.02;9.55;;;;;;;3.01;62.01;103157.22;4688689;28;10000487;-62
2023/01/22 06:05:15;;;;;;;13.07;9.55;;;;;;;3.17;61.92;103156.91;5041345;28;20049;-62
2023/01/22 06:07:43;;;;;;;14.88;9.52;;;;;;;3.36;60.79;103164.31;5043358;28;20052;-62
2023/01/22 06:10:11;;;;;;;11.95;7.72;;;;;;;3.49;60.91;103157.06;5041728;28;20090;-63
2023/01/22 06:12:39;;;;;;;17.58;8.52;;;;;;;3.62;60.61;103157.78;5038388;28;20050;-62
2023/01/22 06:15:08;;;;;;;14.55;9.27;;;;;;;3.77;59.59;103159.25;5038873;28;20112;-62
2023/01/22 06:17:36;;;;;;;12.85;9.00;;;;;;;3.89;59.71;103162.75;5048366;28;20115;-61
2023/01/22 06:20:04;;;;;;;14.57;9.32;;;;;;;3.96;59.05;103158.66;5040171;28;20069;-62
2023/01/22 06:22:33;;;;;;;14.05;8.68;;;;;;;4.13;59.42;103159.97;5042816;28;20101;-62
2023/01/22 06:25:02;;;;;;;14.35;8.13;;;;;;;4.36;58.22;103161.63;5038230;28;20346;-62
2023/01/22 06:27:30;;;;;;;12.55;8.57;;;;;;;4.44;57.52;103163.66;5039260;28;20598;-62
2023/01/22 06:29:58;;;;;;;13.88;8.65;;;;;;;4.58;57.58;103164.22;5039114;28;20160;-62
2023/01/22 06:32:25;;;;;;;12.18;8.00;;;;;;;4.70;56.93;103170.34;5049147;28;20144;-62
2023/01/22 06:34:53;;;;;;;11.30;8.18;;;;;;;4.76;56.55;103172.53;5047372;28;20396;-62
2023/01/22 06:37:21;;;;;;;11.75;8.32;;;;;;;4.76;56.49;103159.19;5034350;28;20113;-62
2023/01/22 06:39:50;;;;;;;11.90;7.65;;;;;;;4.83;56.89;103165.72;5046987;28;20128;-62
2023/01/22 06:42:18;;;;;;;14.43;7.68;;;;;;;4.87;56.10;103167.16;5036311;28;20077;-63
2023/01/22 06:44:46;;;;;;;13.10;8.85;;;;;;;4.93;56.44;103159.63;5048092;28;20049;-62
2023/01/22 06:47:14;;;;;;;10.88;7.88;;;;;;;4.98;56.12;103160.09;5043861;28;20151;-62
2023/01/22 06:49:42;;;;;;;11.82;8.30;;;;;;;4.94;56.24;103161.31;5039112;28;20056;-62
2023/01/22 06:52:09;;;;;;;11.95;8.00;;;;;;;4.90;56.26;103166.03;5038991;28;20053;-62
2023/01/22 06:54:37;;;;;;;12.82;8.00;;;;;;;4.76;56.42;103175.19;5038548;28;20117;-62
2023/01/22 06:57:06;;;;;;;10.70;7.88;;;;;;;4.64;56.77;103178.84;5039760;28;20059;-63
2023/01/22 06:59:34;;;;;;;13.15;8.13;;;;;;;4.42;57.95;103186.91;5029739;28;20057;-63
2023/01/22 07:02:04;;;;;;;11.93;8.25;;;;;;;4.21;58.14;103173.50;5034087;28;20149;-62
2023/01/22 07:04:31;;;;;;;12.82;8.05;;;;;;;4.15;58.29;103185.47;5048962;28;20089;-62
2023/01/22 07:06:59;;;;;;;14.35;9.65;;;;;;;4.06;59.31;103183.56;5029392;28;20561;-62
2023/01/22 07:09:27;;;;;;;12.27;8.32;;;;;;;3.99;58.74;103174.38;5038494;28;20049;-62
2023/01/22 07:11:56;;;;;;;11.98;8.18;;;;;;;3.96;59.24;103177.28;5039919;28;20119;-62
2023/01/22 07:14:25;;;;;;;12.27;7.53;;;;;;;3.92;59.55;103174.00;5046479;28;20585;-63
2023/01/22 07:17:03;;;;;;;15.20;8.63;;;;;;;3.91;60.06;103180.28;5039264;28;20063;-62
2023/01/22 07:19:31;;;;;;;11.90;8.50;;;;;;;3.89;59.12;103184.88;5051651;28;20053;-63
2023/01/22 07:21:59;;;;;;;12.90;8.13;;;;;;;3.85;59.97;103177.28;5041798;28;20075;-63
2023/01/22 07:24:27;;;;;;;11.50;8.10;;;;;;;3.81;59.74;103170.50;5042678;28;20053;-62
2023/01/22 07:26:54;;;;;;;12.25;8.27;;;;;;;3.76;60.47;103178.84;5038394;28;20045;-62
2023/01/22 07:29:22;;;;;;;11.65;8.77;;;;;;;3.75;60.07;103178.97;5033320;28;20077;-63
2023/01/22 07:31:51;;;;;;;14.30;8.50;;;;;;;3.70;59.96;103174.00;5046579;28;20049;-62
2023/01/22 07:34:19;;;;;;;12.15;8.43;;;;;;;3.70;60.84;103178.47;5034308;28;20511;-63
2023/01/22 07:36:47;;;;;;;14.35;9.15;;;;;;;3.65;60.83;103180.63;5038717;28;20108;-62
2023/01/22 07:39:15;;;;;;;10.75;7.30;;;;;;;3.63;61.11;103186.06;5027119;28;20041;-63
2023/01/22 07:41:42;;;;;;;14.13;8.30;;;;;;;3.62;61.06;103189.69;5040590;28;20060;-61
2023/01/22 07:44:11;;;;;;;14.25;9.05;;;;;;;3.75;60.14;103193.09;5033420;28;20137;-62
2023/01/22 07:46:39;;;;;;;13.23;8.50;;;;;;;3.86;60.25;103182.47;5040172;28;20045;-63
2023/01/22 07:49:08;;;;;;;13.13;8.13;;;;;;;4.03;59.89;103182.94;5036086;28;20053;-65
2023/01/22 07:51:36;;;;;;;12.95;8.73;;;;;;;4.15;58.86;103190.81;5034605;28;20092;-66
2023/01/22 07:54:04;;;;;;;12.95;8.70;;;;;;;4.20;58.77;103199.28;5039106;28;20045;-63
2023/01/22 07:56:31;;;;;;;13.32;8.13;;;;;;;4.30;58.76;103193.22;5039073;28;20073;-62
2023/01/22 07:58:59;;;;;;;12.98;8.30;;;;;;;4.32;58.58;103193.94;5038645;28;20059;-69
2023/01/22 08:01:27;;;;;;;13.18;7.43;;;;;;;4.30;58.39;103199.38;5036359;28;20055;-64
2023/01/22 08:03:56;;;;;;;11.10;7.90;;;;;;;4.25;59.24;103196.25;5048195;28;20057;-65
2023/01/22 08:06:25;;;;;;;16.30;7.82;;;;;;;4.22;58.76;103197.34;5033387;28;20070;-66
2023/01/22 08:08:53;;;;;;;12.35;8.65;;;;;;;4.30;59.38;103199.38;5038933;28;20049;-64
2023/01/22 08:11:21;;;;;;;11.38;7.90;;;;;;;4.33;58.55;103201.78;5038092;28;20045;-65
2023/01/22 08:13:48;;;;;;;14.23;8.80;;;;;;;4.45;58.80;103198.16;5041860;28;20062;-64
2023/01/22 08:16:16;;;;;;;11.88;7.93;;;;;;;4.59;58.25;103202.34;5039006;28;20125;-65
2023/01/22 08:18:44;;;;;;;12.20;8.60;;;;;;;4.61;57.67;103208.41;5042097;28;20103;-65
2023/01/22 08:21:12;;;;;;;13.98;8.43;;;;;;;4.68;57.53;103200.75;5039816;28;20044;-65
2023/01/22 08:23:41;;;;;;;14.20;8.23;;;;;;;4.67;57.97;103210.56;5035560;28;20145;-64
2023/01/22 08:26:13;;;;;;;11.75;8.60;;;;;;;4.63;57.48;103202.94;5039284;28;20045;-65
2023/01/22 08:28:41;;;;;;;13.95;8.35;;;;;;;4.53;57.92;103210.84;5038455;28;20414;-64
2023/01/22 08:31:08;;;;;;;12.35;8.70;;;;;;;4.39;59.04;103211.09;5036379;28;20080;-64
2023/01/22 08:33:53;;;;;;;13.55;8.95;;;;;;;4.19;59.44;103228.66;5043374;28;20049;-64
2023/01/22 08:36:20;;;;;;;12.27;8.55;;;;;;;4.00;59.81;103221.28;5043709;28;20057;-64
2023/01/22 08:38:50;;;;;;;14.38;7.97;;;;;;;3.98;60.23;103228.53;5040368;28;20072;-64
2023/01/22 08:41:20;;;;;;;14.65;7.95;;;;;;;3.98;59.93;103222.38;5035436;28;20045;-64
2023/01/22 08:43:48;;;;;;;12.35;7.38;;;;;;;3.84;60.62;103223.44;5051152;28;20084;-65
2023/01/22 08:46:16;;;;;;;15.57;8.95;;;;;;;3.78;60.42;103219.47;5051463;28;20191;-63
2023/01/22 08:48:44;;;;;;;16.48;8.48;;;;;;;3.75;61.22;103219.69;5050188;28;20079;-63
2023/01/22 08:51:12;;;;;;;11.73;7.53;;;;;;;3.73;60.42;103218.97;5045815;28;20072;-64
2023/01/22 08:53:40;;;;;;;11.63;7.32;;;;;;;3.73;60.44;103218.13;5044951;28;20053;-64
2023/01/22 08:56:10;;;;;;;13.00;8.05;;;;;;;3.76;61.21;103224.03;5045139;28;20143;-64
2023/01/22 08:58:38;;;;;;;10.45;7.15;;;;;;;3.73;61.13;103220.78;5055639;28;20041;-64
2023/01/22 09:01:06;;;;;;;11.20;7.38;;;;;;;3.76;60.59;103218.72;5050209;28;20076;-64
2023/01/22 09:03:33;;;;;;;12.25;7.97;;;;;;;3.77;60.59;103217.75;5042214;28;20057;-65
2023/01/22 09:06:01;;;;;;;9.98;7.38;;;;;;;3.77;61.06;103228.41;5038004;28;20077;-63
2023/01/22 09:08:29;;;;;;;14.32;8.48;;;;;;;3.74;60.72;103225.13;5045338;28;20158;-64
2023/01/22 09:10:57;;;;;;;13.65;7.70;;;;;;;3.83;60.70;103227.06;5033234;28;20071;-64
2023/01/22 09:13:26;;;;;;;10.15;7.05;;;;;;;3.93;60.53;103223.59;5034515;28;20049;-64
2023/01/22 09:15:55;;;;;;;9.77;7.05;;;;;;;4.10;60.38;103224.06;5037152;28;20053;-64
2023/01/22 09:18:25;;;;;;;9.65;6.78;;;;;;;4.25;59.32;103217.53;5041271;28;20053;-64
2023/01/22 09:20:53;;;;;;;13.20;7.18;;;;;;;4.40;59.30;103221.63;5039677;28;20049;-63
2023/01/22 09:23:21;;;;;;;10.43;7.18;;;;;;;4.56;58.97;103219.44;5040099;28;20080;-63
2023/01/22 09:25:49;;;;;;;10.15;6.63;;;;;;;4.79;57.94;103227.38;5039827;28;20112;-64
2023/01/22 09:28:16;;;;;;;10.52;6.95;;;;;;;4.88;58.10;103231.94;5039838;28;20061;-64
2023/01/22 09:30:46;;;;;;;11.88;6.38;;;;;;;4.96;57.20;103223.31;5052031;28;20204;-66
2023/01/22 09:33:13;;;;;;;10.75;7.35;;;;;;;4.96;57.43;103226.81;5055706;28;20102;-66
2023/01/22 09:35:41;;;;;;;10.70;6.63;;;;;;;4.93;57.33;103239.56;5052992;28;20057;-63
2023/01/22 09:38:12;;;;;;;12.65;6.53;;;;;;;4.84;58.44;103233.16;5047351;28;20114;-63
2023/01/22 09:40:45;;;;;;;13.98;5.90;;;;;;;4.70;58.69;103234.28;5054628;28;20072;-63
2023/01/22 09:43:25;;;;;;;9.57;6.72;;;;;;;4.62;58.88;103233.22;5050238;28;20192;-65
2023/01/22 09:46:00;;;;;;;11.48;6.63;;;;;;;4.62;59.50;103230.56;5060486;28;20112;-66
2023/01/22 09:48:35;;;;;;;10.82;7.32;;;;;;;4.51;59.44;103231.41;5042761;28;20053;-65
2023/01/22 09:51:03;;;;;;;9.43;6.60;;;;;;;4.40;60.21;103223.44;5041159;28;20053;-65
2023/01/22 09:53:32;;;;;;;12.65;6.47;;;;;;;4.35;59.81;103233.63;5059373;28;20049;-69
2023/01/22 09:56:05;;;;;;;10.38;5.75;;;;;;;4.27;60.57;103228.06;5056387;28;20057;-66
2023/01/22 09:58:35;;;;;;;10.23;6.25;;;;;;;4.21;60.92;103232.91;5059878;28;20176;-66
2023/01/22 10:01:06;;;;;;;10.65;6.80;;;;;;;4.18;60.35;103241.13;5044732;28;20049;-66
2023/01/22 10:03:37;;;;;;;8.98;6.20;;;;;;;4.10;60.94;103248.03;5034571;28;20064;-66
2023/01/22 10:06:11;;;;;;;9.07;6.47;;;;;;;4.04;61.10;103244.03;5030297;28;20057;-66
2023/01/22 10:08:49;;;;;;;10.40;5.85;;;;;;;3.98;61.27;103247.16;5028258;28;20051;-66
2023/01/22 10:11:17;;;;;;;11.98;6.65;;;;;;;3.99;60.95;103242.69;5042386;28;20053;-66
2023/01/22 10:13:45;;;;;;;7.95;5.80;;;;;;;3.95;60.78;103244.75;5054484;28;20468;-66
2023/01/22 10:16:14;;;;;;;9.43;6.60;;;;;;;3.92;61.33;103251.16;5036566;28;20171;-66
2023/01/22 10:18:46;;;;;;;9.00;6.38;;;;;;;3.87;61.04;103245.34;5047940;28;20076;-66
2023/01/22 10:21:19;;;;;;;9.63;6.15;;;;;;;3.88;60.87;103244.38;5038142;28;20060;-66
2023/01/22 10:23:49;;;;;;;8.82;6.00;;;;;;;4.02;60.73;103243.31;5032795;28;20117;-67
2023/01/22 10:26:20;;;;;;;8.23;5.43;;;;;;;4.21;60.08;103245.38;5049613;28;20045;-67
2023/01/22 10:28:51;;;;;;;10.27;5.88;;;;;;;4.22;60.91;103253.22;5046964;28;20136;-66
2023/01/22 10:31:27;;;;;;;12.02;6.15;;;;;;;4.43;60.27;103248.00;5047086;28;20120;-69
2023/01/22 10:33:57;;;;;;;9.93;6.30;;;;;;;4.56;59.29;103238.06;5051322;28;20057;-67
2023/01/22 10:36:26;;;;;;;10.05;6.20;;;;;;;4.73;58.35;103239.38;5046176;28;20045;-69
2023/01/22 10:39:04;;;;;;;9.32;5.85;;;;;;;4.91;58.83;103237.00;5038671;28;20042;-68
2023/01/22 10:41:32;;;;;;;10.07;5.97;;;;;;;4.95;58.27;103235.78;5036959;28;20056;-67
2023/01/22 10:44:21;;;;;;;9.52;5.70;;;;;;;4.89;58.05;103237.13;5055298;28;20112;-68
2023/01/22 10:46:52;;;;;;;8.35;5.93;;;;;;;4.79;58.78;103238.03;5046764;28;20076;-67
2023/01/22 10:49:21;;;;;;;9.90;6.75;;;;;;;4.65;58.60;103241.81;5040479;28;20041;-66
2023/01/22 10:51:55;;;;;;;13.60;6.60;;;;;;;4.47;59.25;103235.31;5042002;28;20075;-66
2023/01/22 10:54:28;;;;;;;8.77;6.28;;;;;;;4.40;60.09;103250.06;5048942;28;20056;-65
2023/01/22 10:57:06;;;;;;;8.25;6.20;;;;;;;4.33;60.12;103244.38;5048385;28;20085;-65
2023/01/22 10:59:34;;;;;;;9.88;6.20;;;;;;;4.27;59.92;103242.22;5028324;28;20050;-66
2023/01/22 11:02:13;;;;;;;8.80;6.22;;;;;;;4.20;60.44;103231.22;5057348;28;20057;-66
2023/01/22 11:04:40;;;;;;;9.15;6.00;;;;;;;4.17;60.84;103247.41;5047359;28;20057;-66
2023/01/22 11:07:15;;;;;;;10.30;6.38;;;;;;;4.15;60.97;103238.72;5039414;28;20057;-66
2023/01/22 11:09:46;;;;;;;7.45;5.15;;;;;;;4.13;60.59;103240.66;5029993;28;20187;-68
2023/01/22 11:12:20;;;;;;;10.13;6.15;;;;;;;4.08;61.02;103234.00;5039399;28;20345;-70
2023/01/22 11:14:54;;;;;;;10.30;6.38;;;;;;;4.06;60.58;103233.25;5039974;28;20136;-69
2023/01/22 11:17:33;;;;;;;8.73;5.55;;;;;;;4.02;61.17;103227.34;5035344;28;20077;-69
2023/01/22 11:20:11;;;;;;;9.63;5.63;;;;;;;4.01;61.28;103228.31;5040285;28;20042;-71
2023/01/22 11:22:43;;;;;;;7.47;5.88;;;;;;;3.97;61.14;103218.88;5039315;28;20128;-71
2023/01/22 11:25:11;;;;;;;9.50;5.78;;;;;;;3.90;61.66;103217.66;5040406;28;20141;-70
2023/01/22 11:28:03;;;;;;;10.00;5.53;;;;;;;3.91;61.32;103219.34;5050227;28;20064;-70
2023/01/22 11:30:56;;;;;;;8.55;5.63;;;;;;;3.95;62.04;103217.28;5039197;28;20147;-70
2023/01/22 11:33:58;;;;;;;8.00;5.22;;;;;;;4.13;60.91;103214.03;5030116;28;20045;-70
2023/01/22 11:36:33;;;;;;;7.93;5.85;;;;;;;4.29;60.25;103208.34;5032076;28;20117;-71
2023/01/22 11:39:09;;;;;;;7.55;5.15;;;;;;;4.47;59.92;103214.84;5032765;28;20049;-69